Nearby METAR Reports

 

KBUF - Buffalo/Cheektow, New York, USA
Distance from station: 0 0mi, 0km
Updated: 05/18/2022 8:54am
Mostly cloudy
Mostly cloudy
 Wind from varies
Wind: varies 3 mph , 6 km/h
Temperature: 52°F , 11°C
Dew Point: 43°F , 6°C
Humidity: 72%
Barometer: 30.07 inHg , 1018.3 hPa
Clouds: Mostly cloudy
Visibility: 10 miles , 16 km
Cloud details: Few Clouds 17000 ft
Mostly cloudy 25000 ft
2022/05/18 12:54 KBUF 181254Z VRB03KT 10SM FEW170 BKN250 11/06 A3007 RMK AO2 SLP186 T01110056
KIAG - Niagara Falls, New York, USA
Distance from station: NW 16mi, 26km
Updated: 05/18/2022 8:53am
Clear
Clear
 Wind from calm
Wind: Calm
Temperature: 54°F , 12°C
Dew Point: 41°F , 5°C
Humidity: 63%
Barometer: 30.07 inHg , 1018.3 hPa
Clouds: Clear
Visibility: 10 miles , 16 km
2022/05/18 12:53 KIAG 181253Z 00000KT 10SM CLR 12/05 A3007 RMK AO2 SLP187 T01220050
 
CWPC - Port Colborne(Au, Ontario, Canada
Distance from station: W 27mi, 43km
Updated: 05/18/2022 9:00am

 Wind from SE
Wind: SE 1 mph , 2 km/h
Temperature: 50°F , 10°C
Dew Point: 39°F , 4°C
Humidity: 67%
2022/05/18 13:00 CWPC 181300Z AUTO 13001KT 10/04 RMK AO1 SLP195 T01000042 51010
CYSN - St. Catharines A, Ontario, Canada
Distance from station: NW 29mi, 46km
Updated: 05/18/2022 9:00am
Overcast
Overcast
 Wind from calm
Wind: Calm
Temperature: 54°F , 12°C
Dew Point: 43°F , 6°C
Humidity: 67%
Barometer: 30.07 inHg , 1018.3 hPa
Clouds: Overcast
Visibility: 15 miles , 24 km
Cloud details: Few Clouds 10000 ft
Mostly cloudy 18000 ft
Overcast 22000 ft
2022/05/18 13:00 CYSN 181300Z 00000KT 15SM FEW100 BKN180 OVC220 12/06 A3007 RMK AC2CI3CI3 SLP187
 
CWWZ - Port Weller (mar, Ontario, Canada
Distance from station: NW 33mi, 53km
Updated: 05/18/2022 9:00am

 Wind from NW
Wind: NW 5 mph , 7 km/h
Temperature: 54°F , 12°C
Dew Point: 43°F , 6°C
Humidity: 67%
2022/05/18 13:00 CWWZ 181300Z AUTO 32004KT 12/06 RMK AO1 SLP189 T01220064 51012
CXVN - Vineland (au8), Ontario, Canada
Distance from station: WNW 38mi, 61km
Updated: 05/18/2022 9:00am

 Wind from N
Wind: N 5 mph , 7 km/h
Temperature: 54°F , 12°C
Dew Point: 43°F , 6°C
Humidity: 67%
2022/05/18 13:00 CXVN 181300Z AUTO 01004KT 12/06 RMK AO1 SLP183 T01170058 51010
 
KDKK - Dunkirk, New York, USA
Distance from station: SW 41mi, 66km
Updated: 05/18/2022 8:53am
Clear
Clear
 Wind from calm
Wind: Calm
Temperature: 54°F , 12°C
Dew Point: 43°F , 6°C
Humidity: 67%
Barometer: 30.08 inHg , 1018.6 hPa
Clouds: Clear
Visibility: 10 miles , 16 km
2022/05/18 12:53 KDKK 181253Z AUTO 00000KT 10SM CLR 12/06 A3008 RMK AO2 SLP186 T01220061 $
KOLE - Olean, New York, USA
Distance from station: SSE 52mi, 83km
Updated: 05/18/2022 8:55am
Partly cloudy
Partly cloudy
 Wind from SSW
Wind: SSW 3 mph , 6 km/h
Temperature: 46°F , 8°C
Dew Point: 39°F , 4°C
Humidity: 76%
Barometer: 30.07 inHg , 1018.3 hPa
Clouds: Partly cloudy
Visibility: 10 miles , 16 km
Cloud details: Partly cloudy 1800 ft
2022/05/18 12:55 KOLE 181255Z AUTO 21003KT 10SM SCT018 08/04 A3007 RMK AO2
 
KROC - Rochester, New York, USA
Distance from station: ENE 55mi, 88km
Updated: 05/18/2022 8:54am
Partly cloudy
Partly cloudy
 Wind from varies
Wind: varies 6 mph , 9 km/h
Temperature: 54°F , 12°C
Dew Point: 39°F , 4°C
Humidity: 58%
Barometer: 30.09 inHg , 1019 hPa
Clouds: Partly cloudy
Visibility: 10 miles , 16 km
Cloud details: Partly cloudy 25000 ft
2022/05/18 12:54 KROC 181254Z VRB05KT 10SM SCT250 12/04 A3009 RMK AO2 SLP192 T01220044
KDSV - Dansville, New York, USA
Distance from station: ESE 57mi, 92km
Updated: 05/18/2022 8:54am
Clear
Clear
 Wind from calm
Wind: Calm
Temperature: 54°F , 12°C
Dew Point: 43°F , 6°C
Humidity: 67%
Barometer: 30.08 inHg , 1018.6 hPa
Clouds: Clear
Visibility: 10 miles , 16 km
2022/05/18 12:54 KDSV 181254Z AUTO 00000KT 10SM CLR 12/06 A3008 RMK AO2 SLP195 T01170056
 
CWWB - Burlington Piers, Ontario, Canada
Distance from station: WNW 59mi, 94km
Updated: 05/18/2022 9:00am

 Wind from ENE
Wind: ENE 5 mph , 7 km/h
Temperature: 50°F , 10°C
Wind Chill: 48°F , 9°C
Dew Point: 39°F , 4°C
Humidity: 67%
2022/05/18 13:00 CWWB 181300Z AUTO 07004KT 10/04 RMK AO1 SLP186 T01010040 51010
CYTZ - Toronto Il Vor, Ontario, Canada
Distance from station: NW 59mi, 95km
Updated: 05/18/2022 9:00am
Clear
Clear
 Wind from SSW
Wind: SSW 6 mph , 9 km/h
Temperature: 50°F , 10°C
Wind Chill: 48°F , 9°C
Dew Point: 41°F , 5°C
Humidity: 71%
Barometer: 30.07 inHg , 1018.3 hPa
Clouds: Clear
Visibility: 9 miles , 14 km
2022/05/18 13:00 CYTZ 181300Z AUTO 21005KT 170V270 9SM CLR 10/05 A3007 RMK SLP185
 
CXTO - Toronto City, Ontario, Canada
Distance from station: NW 61mi, 98km
Updated: 05/18/2022 9:00am

 
Temperature: 55°F , 13°C
Dew Point: 37°F , 3°C
Humidity: 51%
2022/05/18 13:00 CXTO 181300Z AUTO 13/03 RMK AO1 SLP182 T01310026 50011
KJHW - Jamestown, New York, USA
Distance from station: SSW 62mi, 99km
Updated: 05/18/2022 8:56am
Clear
Clear
 Wind from SE
Wind: SE 3 mph , 6 km/h
Temperature: 48°F , 9°C
Dew Point: 43°F , 6°C
Humidity: 82%
Barometer: 30.07 inHg , 1018.3 hPa
Clouds: Clear
Visibility: 10 miles , 16 km
2022/05/18 12:56 KJHW 181256Z AUTO 13003KT 10SM CLR 09/06 A3007 RMK AO2 SLP195 T00890056
 
CYHM - Hamilton Airport, Ontario, Canada
Distance from station: WNW 63mi, 101km
Updated: 05/18/2022 9:00am
Mostly cloudy
Mostly cloudy
 Wind from E
Wind: E 6 mph , 9 km/h
Temperature: 52°F , 11°C
Dew Point: 41°F , 5°C
Humidity: 67%
Barometer: 30.06 inHg , 1017.9 hPa
Clouds: Mostly cloudy
Visibility: 15 miles , 24 km
Cloud details: Few Clouds 14000 ft
Partly cloudy 22000 ft
Mostly cloudy 24000 ft
2022/05/18 13:00 CYHM 181300Z 10005KT 050V120 15SM FEW140 SCT220 BKN240 11/05 A3006 RMK AC1CI3CI2 SLP185
CXHM - Hamilton Rbg Cs, Ontario, Canada
Distance from station: WNW 64mi, 102km
Updated: 05/18/2022 9:00am

 Wind from S
Wind: S 2 mph , 4 km/h
Temperature: 54°F , 12°C
Dew Point: 41°F , 5°C
Humidity: 63%
2022/05/18 13:00 CXHM 181300Z AUTO 17002KT 12/05 RMK AO1 SLP182 T01220046 51009
 
CYYZ - Toronto/Pearson, Ontario, Canada
Distance from station: NW 67mi, 108km
Updated: 05/18/2022 9:00am
Mostly cloudy
Mostly cloudy
 Wind from E
Wind: E 3 mph , 6 km/h
Temperature: 54°F , 12°C
Dew Point: 37°F , 3°C
Humidity: 54%
Barometer: 30.06 inHg , 1017.9 hPa
Clouds: Mostly cloudy
Visibility: 15 miles , 24 km
Cloud details: Mostly cloudy 24000 ft
2022/05/18 13:00 CYYZ 181300Z 08003KT 040V130 15SM BKN240 12/03 A3006 RMK CS7 SLP184
CYOO - Oshawa, Ontario, Canada
Distance from station: N 68mi, 110km
Updated: 05/18/2022 9:00am
Clear
Clear
 Wind from ESE
Wind: ESE 3 mph , 6 km/h
Temperature: 55°F , 13°C
Dew Point: 36°F , 2°C
Humidity: 47%
Barometer: 30.07 inHg , 1018.3 hPa
Clouds: Clear
Visibility: 9 miles , 14 km
2022/05/18 13:00 CYOO 181300Z AUTO 11003KT 070V140 9SM CLR 13/02 A3007 RMK SLP185
 
KELZ - Wellsville, New York, USA
Distance from station: SE 69mi, 111km
Updated: 05/18/2022 8:56am
Clear
Clear
 Wind from varies
Wind: varies 3 mph , 6 km/h
Temperature: 50°F , 10°C
Dew Point: 39°F , 4°C
Humidity: 67%
Barometer: 30.07 inHg , 1018.3 hPa
Clouds: Clear
Visibility: 10 miles , 16 km
2022/05/18 12:56 KELZ 181256Z AUTO VRB03KT 10SM CLR 10/04 A3007 RMK AO2 SLP187 T01000044
CWNC - Cobourg (mars), Ontario, Canada
Distance from station: NNE 76mi, 122km
Updated: 05/18/2022 9:00am

 Wind from SE
Wind: SE 3 mph , 6 km/h
Temperature: 50°F , 10°C
Dew Point: 41°F , 5°C
Humidity: 71%
2022/05/18 13:00 CWNC 181300Z AUTO 13003KT 10/05 RMK AO1 SLP188 T01020051 51023